CheckWX is a tool to help pilots better visualize weather data.  It is not intended as a substitute for an official pre-flight weather briefing.

03:18:46 UTC

KJXI METAR
Fox Stephens Field - Gilmer Municipal Airport
Gilmer, Texas, USA
Current

24 mins ago

KJXI 270255Z AUTO 00000KT 10SM CLR 25/21 A3000 RMK AO2 T02530210
Observed
May-27 @ 02:55 UTC
Visibility
10 SM
Flight Rules
VFR
Cloud Levels
  • Clear skies
Temperature
25°C / 77°F
Dewpoint
21°C / 70°F
Humidity
79%
Altimeter
30" Hg
Pressure
1015.92 hPa
Previous

44 mins ago

KJXI 270235Z AUTO 00000KT 10SM CLR 26/21 A3000 RMK AO2 T02600207
Observed
May-27 @ 02:35 UTC
Visibility
10 SM
Flight Rules
VFR
Cloud Levels
  • Clear skies
Temperature
26°C / 79°F
Dewpoint
21°C / 70°F
Humidity
74%
Altimeter
30" Hg
Pressure
1015.92 hPa
Previous

1 hour ago

KJXI 270215Z AUTO 00000KT 10SM SCT050 SCT110 26/21 A2999 RMK AO2 T02580211
Observed
May-27 @ 02:15 UTC
Visibility
10 SM
Flight Rules
VFR
Cloud Levels
  • Scattered at 5,000' AGL
  • Scattered at 11,000' AGL
Temperature
26°C / 79°F
Dewpoint
21°C / 70°F
Humidity
74%
Altimeter
29.99" Hg
Pressure
1015.62 hPa